DW6345 Murcia ES current weather conditions

sailwx.info

Wind from 048 at 6 knots gusting 13

Air temperature 30.6° C
Dewpoint 19.6° C

Last reported at 2015-Aug-04 18:49 UTC.
Time now 2015-Aug-04 20:00 UTC

Location: N 37°60' W 001°06'.
View on Google Maps.

See reports from other nearby stations

  
Tides and Currents Weather Stations Pressure Air Temp Water Temp Dewpoint Dewpoint Depression Visibility Wind Speed Wind Dir Waves Ship Positions
date/time (UTC)wind fromknots sea level pressurealtimeterstation pressurevisibilityair tempwater tempwave heightnotes
2015-Aug-04 18:49 048 6 gusting 13 30.6
2015-Aug-04 18:44 090 9 gusting 13 31.1
2015-Aug-04 18:39 093 7 gusting 14 31.1
2015-Aug-04 18:34 090 6 gusting 13 31.7
2015-Aug-04 18:29 087 7 gusting 12 31.7
2015-Aug-04 18:24 132 7 gusting 14 31.7
2015-Aug-04 18:19 090 8 gusting 13 31.7
2015-Aug-04 18:14 090 6 gusting 13 31.7
2015-Aug-04 18:09 090 8 gusting 15 32.2
2015-Aug-04 18:04 048 11 gusting 15 32.2
2015-Aug-04 17:59 133 8 gusting 14 32.8
2015-Aug-04 17:54 090 10 gusting 14 32.8
2015-Aug-04 17:50 133 10 gusting 14 33.3
2015-Aug-04 17:44 093 6 gusting 11 33.9
2015-Aug-04 17:40 093 6 gusting 11 33.9
2015-Aug-04 17:34 092 6 gusting 13 33.9
2015-Aug-04 17:29 131 6 gusting 13 34.4
2015-Aug-04 17:24 090 6 gusting 13 34.4
2015-Aug-04 17:19 132 10 gusting 14 35.0
2015-Aug-04 17:14 135 4 gusting 8 35.0
2015-Aug-04 17:10 095 5 gusting 12 35.0
2015-Aug-04 17:04 087 5 gusting 8 35.0
2015-Aug-04 16:59 090 6 gusting 11 35.0
2015-Aug-04 16:54 093 6 gusting 12 35.0
2015-Aug-04 16:49 086 6 gusting 12 35.0
2015-Aug-04 16:44 090 7 gusting 13 35.0
2015-Aug-04 16:39 090 8 gusting 13 35.0
2015-Aug-04 16:34 137 7 gusting 13 35.6
2015-Aug-04 16:29 049 5 gusting 13 35.6
2015-Aug-04 16:24 090 8 gusting 13 35.6
2015-Aug-04 16:19 090 5 gusting 10 36.1
2015-Aug-04 16:14 093 5 gusting 10 36.1
2015-Aug-04 16:09 139 5 gusting 10 36.1
2015-Aug-04 16:04 135 0 gusting 5 36.1
2015-Aug-04 16:00 139 2 gusting 8 36.1
2015-Aug-04 15:54 137 5 gusting 8 36.1
2015-Aug-04 15:49 180 5 gusting 8 36.1
2015-Aug-04 15:44 135 5 gusting 8 36.1
2015-Aug-04 15:40 180 5 gusting 11 36.7
2015-Aug-04 15:34 093 5 gusting 11 36.1
2015-Aug-04 15:30 135 3 gusting 8 36.1
2015-Aug-04 15:25 177 5 gusting 8 36.1
2015-Aug-04 15:19 091 2 gusting 11 36.1
2015-Aug-04 15:14 180 6 gusting 13 35.6
2015-Aug-04 15:09 090 2 gusting 11 36.1
2015-Aug-04 15:05 178 5 gusting 11 35.6
2015-Aug-04 14:59 138 6 gusting 11 35.6
2015-Aug-04 14:55 180 6 gusting 11 35.6
2015-Aug-04 14:50 180 7 gusting 13 35.0
2015-Aug-04 14:45 201 6 gusting 10 35.0
2015-Aug-04 14:39 180 6 gusting 11 35.0
2015-Aug-04 14:35 129 8 gusting 14 35.0
2015-Aug-04 14:30 090 7 gusting 15 35.0
2015-Aug-04 14:24 088 10 gusting 17 35.0
2015-Aug-04 14:20 094 7 gusting 17 35.0
2015-Aug-04 14:14 090 11 gusting 17 35.6
2015-Aug-04 14:10 090 6 gusting 13 35.6
2015-Aug-04 14:05 093 7 gusting 14 35.6
2015-Aug-04 13:59 154 8 gusting 13 35.6
2015-Aug-04 13:54 090 6 gusting 14 35.6
2015-Aug-04 13:50 093 9 gusting 14 35.6
2015-Aug-04 13:44 092 5 gusting 11 35.0
2015-Aug-04 13:40 090 7 gusting 14 35.0
2015-Aug-04 13:34 090 6 gusting 13 35.0
2015-Aug-04 13:30 008 4 gusting 13 35.0
2015-Aug-04 13:25 090 9 gusting 15 35.0
2015-Aug-04 13:20 092 7 gusting 14 35.0
2015-Aug-04 13:14 132 6 gusting 12 35.0
2015-Aug-04 13:10 342 6 gusting 13 35.0
2015-Aug-04 13:04 135 8 gusting 13 35.0
2015-Aug-04 13:00 093 7 gusting 14 35.0
2015-Aug-04 12:54 092 7 gusting 13 35.0
2015-Aug-04 12:50 094 6 gusting 13 35.0
2015-Aug-04 12:44 132 7 gusting 13 35.0
2015-Aug-04 12:40 175 6 gusting 13 35.0
2015-Aug-04 12:34 090 7 gusting 11 35.0
2015-Aug-04 12:30 090 6 gusting 11 35.0
2015-Aug-04 12:24 090 7 gusting 13 35.0
2015-Aug-04 12:20 090 6 gusting 11 35.0
2015-Aug-04 12:15 127 4 gusting 10 35.0
2015-Aug-04 12:10 131 7 gusting 13 35.0
2015-Aug-04 12:04 090 7 gusting 11 34.4
2015-Aug-04 12:00 088 6 gusting 11 34.4
2015-Aug-04 11:55 090 5 gusting 8 34.4
2015-Aug-04 11:50 095 6 gusting 11 34.4
2015-Aug-04 11:44 090 6 gusting 10 34.4
2015-Aug-04 11:40 143 2 gusting 13 33.9
2015-Aug-04 11:35 090 10 gusting 13 33.9
2015-Aug-04 11:30 092 5 gusting 8 34.4
2015-Aug-04 11:24 132 5 gusting 11 33.9
2015-Aug-04 11:20 132 7 gusting 11 33.9
2015-Aug-04 11:14 090 5 gusting 11 33.9
2015-Aug-04 11:09 090 8 gusting 11 33.9
2015-Aug-04 11:05 090 5 gusting 6 33.9
2015-Aug-04 10:59 047 4 gusting 11 33.9
2015-Aug-04 10:54 090 3 gusting 8 33.9
2015-Aug-04 10:50 130 3 gusting 8 33.9
2015-Aug-04 10:44 090 5 gusting 8 33.9
2015-Aug-04 10:40 132 3 gusting 8 33.3
2015-Aug-04 10:34 132 5 gusting 10 33.9
2015-Aug-04 10:30 047 2 gusting 6 33.9
2015-Aug-04 10:25 111 2 gusting 7 33.3
2015-Aug-04 10:20 094 5 gusting 8 33.3
2015-Aug-04 10:15 131 4 gusting 6 33.3
2015-Aug-04 10:10 093 1 gusting 6 33.3
2015-Aug-04 10:05 090 1 gusting 5 32.8
2015-Aug-04 10:00 095 2 gusting 6 32.8
2015-Aug-04 09:54 090 2 gusting 8 32.8
2015-Aug-04 09:50 042 3 gusting 6 32.8
2015-Aug-04 09:44 090 1 gusting 5 32.8
2015-Aug-04 09:40 046 2 gusting 6 32.8
2015-Aug-04 09:35 172 4 gusting 7 32.8
2015-Aug-04 09:30 132 1 gusting 5 32.8
2015-Aug-04 09:25 090 2 gusting 6 32.8
2015-Aug-04 09:20 145 1 gusting 4 32.2
2015-Aug-04 09:15 090 2 gusting 5 32.2
2015-Aug-04 09:10 135 1 gusting 6 32.2
2015-Aug-04 09:05 090 1 gusting 4 32.2
2015-Aug-04 08:59 090 0 gusting 4 32.2
2015-Aug-04 08:55 132 1 gusting 4 32.2
2015-Aug-04 08:50 094 0 gusting 2 32.2
2015-Aug-04 08:45 132 0 gusting 4 32.2
2015-Aug-04 08:40 131 1 gusting 2 31.7
2015-Aug-04 08:35 048 0 gusting 2 31.7
2015-Aug-04 08:30 132 31.1
2015-Aug-04 08:25 091 0 gusting 2 30.6
2015-Aug-04 08:20 049 1 gusting 2 30.6
2015-Aug-04 08:15 045 0 gusting 2 30.0
2015-Aug-04 08:10 093 0 gusting 1 29.4
2015-Aug-04 08:05 180 0 gusting 2 28.9
2015-Aug-04 08:00 180 0 gusting 2 28.9
2015-Aug-04 07:55 270 0 gusting 1 28.9
2015-Aug-04 07:50 315 0 gusting 2 28.3
2015-Aug-04 07:45 315 0 gusting 2 27.8
2015-Aug-04 07:40 270 0 gusting 2 27.8
2015-Aug-04 07:35 180 1 gusting 4 28.3
2015-Aug-04 07:30 180 0 gusting 1 27.8
2015-Aug-04 07:25 180 0 gusting 2 27.8
2015-Aug-04 07:20 177 0 gusting 1 27.8
2015-Aug-04 07:15 135 1 gusting 2 27.8
2015-Aug-04 07:10 180 0 gusting 1 27.8
2015-Aug-04 07:05 135 0 gusting 1 27.2
2015-Aug-04 07:00 093 0 gusting 1 27.2
2015-Aug-04 06:55 090 0 gusting 1 26.7
2015-Aug-04 06:50 135 0 gusting 0 26.1
2015-Aug-04 06:45 270 0 gusting 0 26.1
2015-Aug-04 06:40 270 26.1
2015-Aug-04 06:35 045 0 gusting 1 25.6
2015-Aug-04 06:30 312 0 gusting 1 25.6
2015-Aug-04 06:25 315 25.6
2015-Aug-04 06:20 270 0 gusting 1 25.6
2015-Aug-04 06:15 180 0 gusting 1 25.6
2015-Aug-04 06:10 180 0 gusting 2 25.0
2015-Aug-04 06:05 246 0 gusting 2 25.0
2015-Aug-04 06:00 135 0 gusting 1 25.0
2015-Aug-04 05:55 180 0 gusting 1 25.0
2015-Aug-04 05:50 180 25.0
2015-Aug-04 05:45 180 25.0
2015-Aug-04 05:40 270 0 gusting 2 25.0
2015-Aug-04 05:35 180 0 gusting 2 25.0
2015-Aug-04 05:30 158 0 gusting 4 25.0
2015-Aug-04 05:25 180 1 gusting 4 25.0
2015-Aug-04 05:20 180 0 gusting 2 25.0
2015-Aug-04 05:15 180 2 gusting 5 25.6
2015-Aug-04 05:10 270 0 gusting 1 25.6
2015-Aug-04 05:05 276 0 gusting 2 25.6
2015-Aug-04 05:00 315 0 gusting 2 25.6
2015-Aug-04 04:55 135 25.6
2015-Aug-04 04:50 315 1 gusting 5 25.6
2015-Aug-04 04:45 270 2 gusting 5 25.6
2015-Aug-04 04:40 047 0 gusting 2 25.6
2015-Aug-04 04:35 315 1 gusting 5 25.6
2015-Aug-04 04:30 315 2 gusting 5 25.6
2015-Aug-04 04:25 270 2 gusting 4 25.6
2015-Aug-04 04:20 045 1 gusting 5 26.1
2015-Aug-04 04:15 315 2 gusting 5 26.1
2015-Aug-04 04:10 317 0 gusting 5 26.1
2015-Aug-04 04:05 273 2 gusting 6 26.1
2015-Aug-04 04:00 270 2 gusting 6 26.1
2015-Aug-04 03:55 273 3 gusting 6 25.6
2015-Aug-04 03:50 315 1 gusting 6 25.6
2015-Aug-04 03:45 270 2 gusting 5 25.6
2015-Aug-04 03:40 249 3 gusting 5 25.6
2015-Aug-04 03:35 270 1 gusting 4 25.6
2015-Aug-04 03:30 270 2 gusting 5 25.6
2015-Aug-04 03:25 270 3 gusting 6 25.6
2015-Aug-04 03:20 270 3 gusting 6 25.6
2015-Aug-04 03:15 310 2 gusting 5 25.6
2015-Aug-04 03:10 229 2 gusting 5 25.6
2015-Aug-04 03:05 270 2 gusting 5 25.6
2015-Aug-04 03:00 270 3 gusting 5 25.6
2015-Aug-04 02:55 270 2 gusting 4 25.6
2015-Aug-04 02:50 273 0 gusting 4 25.6
2015-Aug-04 02:45 270 1 gusting 5 25.6
2015-Aug-04 02:40 270 1 gusting 5 25.6
2015-Aug-04 02:35 315 0 gusting 4 26.1
2015-Aug-04 02:30 270 0 gusting 2 26.1
2015-Aug-04 02:25 312 0 gusting 2 26.1
2015-Aug-04 02:20 270 0 gusting 2 25.6
2015-Aug-04 02:15 270 0 gusting 2 25.6
2015-Aug-04 02:10 270 2 gusting 2 25.6
2015-Aug-04 02:05 248 1 gusting 2 25.6
2015-Aug-04 02:00 180 0 gusting 2 25.6
2015-Aug-04 01:55 180 0 gusting 1 25.6
2015-Aug-04 01:50 180 0 gusting 2 25.6
2015-Aug-04 01:45 180 1 gusting 2 25.6
2015-Aug-04 01:40 176 25.6
2015-Aug-04 01:35 088 0 gusting 1 25.6
2015-Aug-04 01:30 315 0 gusting 1 25.6
2015-Aug-04 01:25 270 0 gusting 1 25.6
2015-Aug-04 01:20 276 0 gusting 1 25.6
2015-Aug-04 01:15 315 0 gusting 0 25.6
2015-Aug-04 01:10 180 0 gusting 0 25.6
2015-Aug-04 01:05 180 0 gusting 1 25.6
2015-Aug-04 01:00 180 0 gusting 2 25.6
2015-Aug-04 00:55 180 0 gusting 4 25.6
2015-Aug-04 00:50 180 2 gusting 4 25.6
2015-Aug-04 00:45 140 1 gusting 2 26.1
2015-Aug-04 00:40 174 0 gusting 1 26.1
2015-Aug-04 00:35 135 26.1
2015-Aug-04 00:30 094 26.1
2015-Aug-04 00:25 045 0 gusting 1 26.1
2015-Aug-04 00:20 270 0 gusting 1 26.1
2015-Aug-04 00:15 273 0 gusting 0 26.1
2015-Aug-04 00:10 270 0 gusting 0 26.1
2015-Aug-04 00:05 180 26.1
2015-Aug-04 00:00 180 0 gusting 1 26.1
2015-Aug-03 23:55 180 26.1
2015-Aug-03 23:50 138 26.1
2015-Aug-03 23:45 156 0 gusting 1 26.1
2015-Aug-03 23:40 180 26.7
2015-Aug-03 23:35 135 0 gusting 2 26.7
2015-Aug-03 23:30 142 0 gusting 2 26.7
2015-Aug-03 23:25 090 0 gusting 1 26.7
2015-Aug-03 23:20 135 0 gusting 2 26.7
2015-Aug-03 23:15 090 0 gusting 2 26.7
2015-Aug-03 23:10 132 0 gusting 2 26.7
2015-Aug-03 23:05 090 0 gusting 1 26.7
2015-Aug-03 23:00 126 0 gusting 2 26.7
2015-Aug-03 22:55 315 1 gusting 2 27.2
2015-Aug-03 22:50 041 0 gusting 0 27.2
2015-Aug-03 22:45 315 27.2
2015-Aug-03 22:40 045 0 gusting 2 27.2
2015-Aug-03 22:35 045 1 gusting 4 27.2
2015-Aug-03 22:30 090 1 gusting 2 27.2
2015-Aug-03 22:25 093 0 gusting 2 27.2
2015-Aug-03 22:20 135 0 gusting 4 27.2
2015-Aug-03 22:15 180 1 gusting 4 27.2
2015-Aug-03 22:10 180 0 gusting 1 27.2
2015-Aug-03 22:05 045 0 gusting 1 27.2
2015-Aug-03 22:00 048 0 gusting 2 27.2
2015-Aug-03 21:55 087 0 gusting 2 27.2
2015-Aug-03 21:50 094 1 gusting 2 27.2
2015-Aug-03 21:45 090 0 gusting 2 27.2
2015-Aug-03 21:40 089 0 gusting 2 27.8
2015-Aug-03 21:35 090 0 gusting 2 27.8
2015-Aug-03 21:30 045 0 gusting 2 27.8
2015-Aug-03 21:25 132 1 gusting 4 27.8
2015-Aug-03 21:20 090 1 gusting 4 27.8
2015-Aug-03 21:15 090 1 gusting 5 27.8
2015-Aug-03 21:10 138 0 gusting 2 27.8
2015-Aug-03 21:05 045 1 gusting 2 27.8
2015-Aug-03 21:00 090 1 gusting 2 27.8
2015-Aug-03 20:55 132 1 gusting 5 27.8
2015-Aug-03 20:50 139 2 gusting 5 27.8
2015-Aug-03 20:45 090 2 gusting 5 27.8
2015-Aug-03 20:40 090 2 gusting 5 28.3
2015-Aug-03 20:35 045 1 gusting 4 28.3
2015-Aug-03 20:30 090 2 gusting 6 28.3
2015-Aug-03 20:25 130 2 gusting 6 28.3
2015-Aug-03 20:20 088 3 gusting 5 28.3
2015-Aug-03 20:15 090 3 gusting 6 28.3
2015-Aug-03 20:10 135 5 gusting 7 28.3
2015-Aug-03 20:05 090 6 gusting 7 28.9
2015-Aug-03 20:00 133 4 gusting 7 28.9
2015-Aug-03 19:55 090 5 gusting 7 28.9
2015-Aug-03 19:50 087 2 gusting 6 28.9
2015-Aug-03 19:45 087 3 gusting 6 29.4
2015-Aug-03 19:40 090 2 gusting 8 29.4
2015-Aug-03 19:35 090 5 gusting 6 29.4
2015-Aug-03 19:30 090 4 gusting 8 29.4
2015-Aug-03 19:25 135 4 gusting 6 30.0
2015-Aug-03 19:20 090 6 gusting 8 30.0
2015-Aug-03 19:15 092 5 gusting 8 30.0
2015-Aug-03 19:10 092 4 gusting 6 30.6
2015-Aug-03 19:05 090 2 gusting 7 30.6
2015-Aug-03 19:00 087 5 gusting 8 30.6
2015-Aug-03 18:55 137 5 gusting 8 30.6
2015-Aug-03 18:50 090 6 gusting 8 31.1
2015-Aug-03 18:45 093 4 gusting 8 31.1
2015-Aug-03 18:40 132 5 gusting 8 31.1
2015-Aug-03 18:35 090 5 gusting 8 31.7
2015-Aug-03 18:30 090 5 gusting 8 31.7
2015-Aug-03 18:25 090 4 gusting 7 31.7
2015-Aug-03 18:20 090 5 gusting 10 32.2
2015-Aug-03 18:15 135 5 gusting 11 32.2
2015-Aug-03 18:10 095 2 gusting 8 32.2
2015-Aug-03 18:05 090 6 gusting 10 32.8
2015-Aug-03 18:00 090 7 gusting 12 32.8
2015-Aug-03 17:55 090 5 gusting 11 32.8
2015-Aug-03 17:50 090 5 gusting 12 32.8
2015-Aug-03 17:45 093 6 gusting 13 32.8
2015-Aug-03 17:40 135 9 gusting 13 32.8
2015-Aug-03 17:35 175 7 gusting 13 32.8
2015-Aug-03 17:30 090 6 gusting 14 32.8
2015-Aug-03 17:25 133 10 gusting 14 33.3
2015-Aug-03 17:20 092 6 gusting 11 33.3
2015-Aug-03 17:15 090 6 gusting 10 33.3
2015-Aug-03 17:10 092 6 gusting 11 33.3
2015-Aug-03 17:05 090 6 gusting 10 33.3
2015-Aug-03 17:00 089 6 gusting 13 33.3
2015-Aug-03 16:55 092 7 gusting 13 33.3
2015-Aug-03 16:50 131 7 gusting 14 33.9
2015-Aug-03 16:45 094 7 gusting 13 33.9
2015-Aug-03 16:40 092 7 gusting 13 33.9
2015-Aug-03 16:35 132 6 gusting 13 33.9
2015-Aug-03 16:30 093 6 gusting 13 33.9
2015-Aug-03 16:25 095 6 gusting 13 33.9
2015-Aug-03 16:20 090 7 gusting 13 33.9
2015-Aug-03 16:15 132 7 gusting 13 33.9
2015-Aug-03 16:10 090 9 gusting 14 33.9
2015-Aug-03 16:05 093 7 gusting 13 33.9
2015-Aug-03 16:00 090 7 gusting 14 33.9
2015-Aug-03 15:55 090 7 gusting 14 33.9
2015-Aug-03 15:50 090 9 gusting 14 33.9
2015-Aug-03 15:45 090 8 gusting 14 33.9
2015-Aug-03 15:40 092 6 gusting 13 34.4
2015-Aug-03 15:35 072 7 gusting 14 34.4
2015-Aug-03 15:30 135 8 gusting 13 34.4
2015-Aug-03 15:25 090 8 gusting 17 34.4
2015-Aug-03 15:20 132 8 gusting 17 34.4
2015-Aug-03 15:15 092 8 gusting 17 34.4
2015-Aug-03 15:10 092 8 gusting 14 34.4
2015-Aug-03 15:05 090 9 gusting 17 34.4
2015-Aug-03 15:00 131 11 gusting 17 34.4
2015-Aug-03 14:55 090 4 gusting 13 34.4
2015-Aug-03 14:50 090 9 gusting 15 34.4
2015-Aug-03 14:45 090 8 gusting 13 34.4
2015-Aug-03 14:40 135 7 gusting 12 34.4
2015-Aug-03 14:35 135 6 gusting 14 34.4
2015-Aug-03 14:30 090 7 gusting 14 34.4
2015-Aug-03 14:25 135 9 gusting 14 34.4
2015-Aug-03 14:20 090 6 gusting 14 33.9
2015-Aug-03 14:15 116 7 gusting 14 33.9
2015-Aug-03 14:10 090 7 gusting 14 33.9
2015-Aug-03 14:05 093 8 gusting 14 34.4
2015-Aug-03 14:00 132 7 gusting 14 34.4
2015-Aug-03 13:55 093 7 gusting 14 34.4
2015-Aug-03 13:50 153 8 gusting 15 34.4
2015-Aug-03 13:45 132 8 gusting 13 34.4
2015-Aug-03 13:40 090 7 gusting 14 34.4
2015-Aug-03 13:35 090 8 gusting 13 34.4
2015-Aug-03 13:30 053 6 gusting 15 34.4
2015-Aug-03 13:25 133 7 gusting 11 34.4
2015-Aug-03 13:20 093 6 gusting 11 34.4
2015-Aug-03 13:15 090 4 gusting 14 34.4
2015-Aug-03 13:10 090 8 gusting 14 34.4
2015-Aug-03 13:05 045 6 gusting 11 35.0
2015-Aug-03 13:00 094 7 gusting 14 35.0
2015-Aug-03 12:55 090 6 gusting 11 35.0
2015-Aug-03 12:50 139 5 gusting 13 35.0
2015-Aug-03 12:45 135 4 gusting 14 35.0
2015-Aug-03 12:40 174 8 gusting 13 35.0
2015-Aug-03 12:35 090 5 gusting 14 35.0
2015-Aug-03 12:30 089 7 gusting 14 35.0
2015-Aug-03 12:25 094 7 gusting 13 35.0
2015-Aug-03 12:20 177 7 gusting 14 35.0
2015-Aug-03 12:15 132 7 gusting 14 35.6
2015-Aug-03 12:10 132 3 gusting 11 35.0
2015-Aug-03 12:05 090 5 gusting 12 35.6
2015-Aug-03 12:00 092 3 gusting 8 35.6
2015-Aug-03 11:55 135 5 gusting 13 35.0
2015-Aug-03 11:50 096 4 gusting 11 35.0
2015-Aug-03 11:45 090 4 gusting 11 35.6
2015-Aug-03 11:40 131 4 gusting 8 35.6
2015-Aug-03 11:35 092 5 gusting 10 35.6
2015-Aug-03 11:30 180 2 gusting 6 35.0
2015-Aug-03 11:25 092 2 gusting 6 35.0
2015-Aug-03 11:20 090 3 gusting 7 35.0
2015-Aug-03 11:15 180 6 gusting 8 35.0
2015-Aug-03 11:10 180 4 gusting 8 35.0
2015-Aug-03 11:05 180 4 gusting 11 35.0
2015-Aug-03 11:00 138 4 gusting 8 35.0
2015-Aug-03 10:55 180 4 gusting 6 34.4
2015-Aug-03 10:50 095 3 gusting 10 34.4
2015-Aug-03 10:45 132 4 gusting 11 33.9
2015-Aug-03 10:40 045 5 gusting 8 34.4
2015-Aug-03 10:35 133 2 gusting 6 33.9
2015-Aug-03 10:30 210 2 gusting 12 33.9
2015-Aug-03 10:25 049 4 gusting 8 33.9
2015-Aug-03 10:20 135 2 gusting 6 33.9
2015-Aug-03 10:15 135 3 gusting 6 33.9
2015-Aug-03 10:10 130 4 gusting 8 33.3
2015-Aug-03 10:05 180 2 gusting 6 33.3
2015-Aug-03 10:00 051 2 gusting 6 33.3
2015-Aug-03 09:55 270 1 gusting 6 32.8
2015-Aug-03 09:50 091 1 gusting 5 32.8
2015-Aug-03 09:45 132 3 gusting 6 32.2
2015-Aug-03 09:40 132 1 gusting 6 32.2
2015-Aug-03 09:35 045 2 gusting 6 32.2
2015-Aug-03 09:30 048 2 gusting 5 32.2
2015-Aug-03 09:25 270 1 gusting 2 32.2
2015-Aug-03 09:20 270 0 gusting 4 31.7
2015-Aug-03 09:15 139 1 gusting 4 31.7
2015-Aug-03 09:10 090 1 gusting 4 31.7
2015-Aug-03 09:05 090 0 gusting 2 31.1
2015-Aug-03 09:00 090 1 gusting 2 31.1
2015-Aug-03 08:55 087 0 gusting 2 30.6
2015-Aug-03 08:50 046 1 gusting 2 30.6
2015-Aug-03 08:45 052 0 gusting 4 30.0
2015-Aug-03 08:40 276 1 gusting 4 29.4
2015-Aug-03 08:35 332 1 gusting 5 29.4
2015-Aug-03 08:30 317 2 gusting 5 28.9
2015-Aug-03 08:25 315 2 gusting 5 28.9
2015-Aug-03 08:20 045 0 gusting 2 28.9
2015-Aug-03 08:15 135 0 gusting 4 28.3
2015-Aug-03 08:10 312 0 gusting 2 28.3
2015-Aug-03 08:05 315 0 gusting 2 27.8
2015-Aug-03 08:00 315 1 gusting 2 27.8
2015-Aug-03 07:55 319 0 gusting 2 27.8
2015-Aug-03 07:50 315 1 gusting 2 27.8
2015-Aug-03 07:45 270 1 gusting 4 27.8
2015-Aug-03 07:40 045 0 gusting 2 27.8
2015-Aug-03 07:35 040 0 gusting 2 27.8
2015-Aug-03 07:30 090 1 gusting 2 27.2
2015-Aug-03 07:25 091 1 gusting 4 27.2
2015-Aug-03 07:20 090 2 gusting 5 27.2
2015-Aug-03 07:15 091 1 gusting 5 27.2
2015-Aug-03 07:10 093 1 gusting 5 26.7
2015-Aug-03 07:05 090 2 gusting 5 26.7
2015-Aug-03 07:00 090 1 gusting 2 26.7
2015-Aug-03 06:55 092 0 gusting 1 26.7
2015-Aug-03 06:50 131 0 gusting 1 26.1
2015-Aug-03 06:45 135 0 gusting 1 25.6
2015-Aug-03 06:40 045 0 gusting 2 25.6
2015-Aug-03 06:35 084 0 gusting 4 25.6
2015-Aug-03 06:30 046 1 gusting 4 25.6
2015-Aug-03 06:25 045 0 gusting 2 25.6
2015-Aug-03 06:20 045 0 gusting 1 25.6
2015-Aug-03 06:15 270 0 gusting 1 25.0
2015-Aug-03 06:10 270 0 gusting 1 25.0
2015-Aug-03 06:05 270 0 gusting 1 25.0
2015-Aug-03 06:00 270 0 gusting 2 25.0
2015-Aug-03 05:55 270 1 gusting 5 25.0
2015-Aug-03 05:50 270 2 gusting 5 25.0
2015-Aug-03 05:45 183 2 gusting 5 24.4
2015-Aug-03 05:40 302 1 gusting 5 24.4
2015-Aug-03 05:35 273 2 gusting 6 24.4
2015-Aug-03 05:30 290 5 gusting 6 24.4
2015-Aug-03 05:25 313 2 gusting 6 24.4
2015-Aug-03 05:20 270 4 gusting 8 25.0
2015-Aug-03 05:15 274 2 gusting 6 25.0
2015-Aug-03 05:10 270 3 gusting 6 24.4
2015-Aug-03 05:05 270 4 gusting 6 25.0
2015-Aug-03 05:00 270 2 gusting 5 25.0
2015-Aug-03 04:55 270 2 gusting 6 25.0
2015-Aug-03 04:50 315 1 gusting 5 25.0
2015-Aug-03 04:45 270 1 gusting 5 24.4
2015-Aug-03 04:40 252 4 gusting 6 24.4
2015-Aug-03 04:35 270 2 gusting 2 25.0
2015-Aug-03 04:30 250 1 gusting 5 25.0
2015-Aug-03 04:25 270 2 gusting 2 25.0
2015-Aug-03 04:20 270 0 gusting 1 25.0
2015-Aug-03 04:15 315 0 gusting 2 25.0
2015-Aug-03 04:10 270 0 gusting 2 25.0
2015-Aug-03 04:05 270 0 gusting 1 25.0
2015-Aug-03 04:00 313 0 gusting 1 25.0
2015-Aug-03 03:55 270 0 gusting 2 25.0
2015-Aug-03 03:50 270 1 gusting 4 25.0
2015-Aug-03 03:45 315 1 gusting 2 25.0
2015-Aug-03 03:40 270 1 gusting 4 25.0
2015-Aug-03 03:35 273 1 gusting 5 25.0
2015-Aug-03 03:30 270 2 gusting 5 25.0
2015-Aug-03 03:25 270 2 gusting 6 25.0
2015-Aug-03 03:20 270 2 gusting 5 25.0
2015-Aug-03 03:15 270 4 gusting 5 25.0
2015-Aug-03 03:10 270 0 gusting 2 25.6
2015-Aug-03 03:05 270 0 gusting 2 25.6
2015-Aug-03 03:00 270 1 gusting 4 25.0
2015-Aug-03 02:55 269 0 gusting 4 25.0
2015-Aug-03 02:50 270 1 gusting 4 25.0
2015-Aug-03 02:45 251 0 gusting 5 25.6
2015-Aug-03 02:40 270 1 gusting 4 25.6
2015-Aug-03 02:35 270 0 gusting 1 25.6
2015-Aug-03 02:30 268 0 gusting 1 25.6
2015-Aug-03 02:25 273 25.6
2015-Aug-03 02:20 272 0 gusting 0 25.6
2015-Aug-03 02:15 270 0 gusting 2 25.6
2015-Aug-03 02:10 273 0 gusting 2 25.6
2015-Aug-03 02:05 270 0 gusting 0 25.0
2015-Aug-03 02:00 270 0 gusting 1 25.0
2015-Aug-03 01:55 315 0 gusting 2 25.0
2015-Aug-03 01:50 315 0 gusting 2 25.6
2015-Aug-03 01:45 315 1 gusting 2 25.6
2015-Aug-03 01:40 319 0 gusting 2 25.6
2015-Aug-03 01:35 312 25.6
2015-Aug-03 01:30 122 1 gusting 4 25.6
2015-Aug-03 01:25 045 1 gusting 5 25.6
2015-Aug-03 01:20 045 1 gusting 2 25.6
2015-Aug-03 01:15 087 0 gusting 1 25.6
2015-Aug-03 01:10 090 0 gusting 1 25.6
2015-Aug-03 01:05 045 0 gusting 0 25.6
2015-Aug-03 01:00 045 0 gusting 1 25.6
2015-Aug-03 00:55 045 0 gusting 2 25.6
2015-Aug-03 00:50 041 0 gusting 2 25.6
2015-Aug-03 00:45 315 0 gusting 1 25.6
2015-Aug-03 00:40 315 0 gusting 1 25.6
2015-Aug-03 00:35 315 0 gusting 1 25.6
2015-Aug-03 00:30 315 0 gusting 0 25.6
2015-Aug-03 00:25 315 25.6
2015-Aug-03 00:20 273 25.6
2015-Aug-03 00:15 090 25.6
2015-Aug-03 00:10 045 25.6
2015-Aug-03 00:05 045 25.6
2015-Aug-03 00:00 045 0 gusting 0 25.6
2015-Aug-02 23:55 045 25.6
2015-Aug-02 23:50 090 25.6
2015-Aug-02 23:45 045 0 gusting 1 26.1
2015-Aug-02 23:40 045 0 gusting 1 26.1
2015-Aug-02 23:35 045 0 gusting 0 26.1
2015-Aug-02 23:30 048 0 gusting 1 26.1
2015-Aug-02 23:25 045 0 gusting 1 25.6
2015-Aug-02 23:20 135 25.6
2015-Aug-02 23:15 093 26.1
2015-Aug-02 23:10 128 0 gusting 2 26.1
2015-Aug-02 23:05 045 0 gusting 2 26.1
2015-Aug-02 22:59 086 1 gusting 2 26.1
2015-Aug-02 22:54 048 0 gusting 2 26.1
2015-Aug-02 22:49 131 1 gusting 2 26.1
2015-Aug-02 22:44 135 0 gusting 2 26.1
2015-Aug-02 22:39 090 0 gusting 2 26.1
2015-Aug-02 22:34 090 1 gusting 4 26.1
2015-Aug-02 22:29 087 0 gusting 4 26.1
2015-Aug-02 22:24 090 1 gusting 4 26.1
2015-Aug-02 22:19 131 1 gusting 2 26.1
2015-Aug-02 22:14 094 2 gusting 5 26.1
2015-Aug-02 22:09 090 2 gusting 4 26.1
2015-Aug-02 22:04 135 2 gusting 4 26.1
2015-Aug-02 21:59 090 1 gusting 4 26.1
2015-Aug-02 21:54 135 1 gusting 5 26.7
2015-Aug-02 21:49 090 2 gusting 5 26.7
2015-Aug-02 21:44 090 1 gusting 4 26.7
2015-Aug-02 21:39 090 1 gusting 5 26.7
2015-Aug-02 21:34 135 2 gusting 5 26.7
2015-Aug-02 21:29 070 2 gusting 5 26.7
2015-Aug-02 21:24 090 1 gusting 5 26.7
2015-Aug-02 21:19 090 2 gusting 5 26.7
2015-Aug-02 21:14 093 1 gusting 5 26.7
2015-Aug-02 21:09 090 2 gusting 4 26.7
2015-Aug-02 21:04 090 0 gusting 4 26.7
2015-Aug-02 20:59 090 2 gusting 5 26.7
2015-Aug-02 20:54 133 2 gusting 5 26.7
2015-Aug-02 20:49 090 1 gusting 4 27.2
2015-Aug-02 20:44 137 1 gusting 4 27.2
2015-Aug-02 20:39 053 0 gusting 5 27.2
2015-Aug-02 20:34 094 2 gusting 5 27.2
2015-Aug-02 20:29 131 1 gusting 5 27.2
2015-Aug-02 20:24 135 1 gusting 5 27.2
2015-Aug-02 20:19 073 2 gusting 5 27.2
2015-Aug-02 20:14 130 2 gusting 6 27.2
2015-Aug-02 20:09 131 2 gusting 7 27.2
2015-Aug-02 20:04 135 5 gusting 6 27.8